createdAt,value
2022-10-23T00:00:26.562Z,1011.94
2022-10-23T00:01:26.503Z,1011.96
2022-10-23T00:02:26.549Z,1011.93
2022-10-23T00:03:26.469Z,1011.94
2022-10-23T00:04:26.467Z,1011.92
2022-10-23T00:05:26.449Z,1011.92
2022-10-23T00:06:26.454Z,1011.91
2022-10-23T00:07:26.511Z,1011.93
2022-10-23T00:08:26.430Z,1011.89
2022-10-23T00:09:26.415Z,1011.90
2022-10-23T00:10:26.391Z,1011.88
2022-10-23T00:11:26.380Z,1011.91
2022-10-23T00:12:26.370Z,1011.92
2022-10-23T00:13:26.380Z,1011.92
2022-10-23T00:14:26.353Z,1011.93
2022-10-23T00:15:26.338Z,1011.94
2022-10-23T00:16:26.328Z,1011.92
2022-10-23T00:17:26.319Z,1011.95
2022-10-23T00:18:26.327Z,1012.00
2022-10-23T00:19:26.303Z,1011.96
2022-10-23T00:20:26.285Z,1011.97
2022-10-23T00:21:26.278Z,1012.03
2022-10-23T00:22:26.264Z,1012.07
2022-10-23T00:23:26.279Z,1012.05
2022-10-23T00:24:26.238Z,1012.07
2022-10-23T00:25:26.232Z,1012.07
2022-10-23T00:26:26.216Z,1012.06
2022-10-23T00:27:26.209Z,1012.09
2022-10-23T00:28:26.221Z,1012.12
2022-10-23T00:29:26.192Z,1012.13
2022-10-23T00:30:26.173Z,1012.17
2022-10-23T00:31:26.168Z,1012.16
2022-10-23T00:32:26.211Z,1012.19
2022-10-23T00:33:26.175Z,1012.15
2022-10-23T00:34:26.131Z,1012.13
2022-10-23T00:35:26.122Z,1012.14
2022-10-23T00:36:26.111Z,1012.13
2022-10-23T00:37:26.103Z,1012.15
2022-10-23T00:38:33.164Z,1012.15
2022-10-23T00:39:26.080Z,1012.16
2022-10-23T00:40:26.066Z,1012.16
2022-10-23T00:41:26.067Z,1012.15
2022-10-23T00:42:26.044Z,1012.18
2022-10-23T00:43:26.046Z,1012.14
2022-10-23T00:44:26.027Z,1012.12
2022-10-23T00:45:26.019Z,1012.11
2022-10-23T00:46:26.002Z,1012.12
2022-10-23T00:47:26.005Z,1012.11
2022-10-23T00:48:25.986Z,1012.15
2022-10-23T00:49:25.988Z,1012.14
2022-10-23T00:50:25.969Z,1012.07
2022-10-23T00:51:25.961Z,1012.09
2022-10-23T00:52:25.938Z,1012.10
2022-10-23T00:53:25.928Z,1012.15
2022-10-23T00:54:25.949Z,1012.09
2022-10-23T00:55:25.906Z,1012.09
2022-10-23T00:56:25.897Z,1012.09
2022-10-23T00:57:25.980Z,1012.07
2022-10-23T00:58:25.871Z,1012.13
2022-10-23T00:59:25.874Z,1012.13
2022-10-23T01:00:25.850Z,1012.12
2022-10-23T01:01:26.001Z,1012.15
2022-10-23T01:02:25.912Z,1012.15
2022-10-23T01:03:25.819Z,1012.16
2022-10-23T01:04:25.822Z,1012.17
2022-10-23T01:05:25.798Z,1012.15
2022-10-23T01:06:25.785Z,1012.14
2022-10-23T01:07:25.776Z,1012.11
2022-10-23T01:08:25.763Z,1012.12
2022-10-23T01:09:25.764Z,1012.12
2022-10-23T01:10:25.757Z,1012.10
2022-10-23T01:11:25.733Z,1012.11
2022-10-23T01:12:25.719Z,1012.14
2022-10-23T01:13:25.710Z,1012.18
2022-10-23T01:14:25.707Z,1012.15
2022-10-23T01:15:25.693Z,1012.18
2022-10-23T01:16:25.677Z,1012.13
2022-10-23T01:17:25.670Z,1012.17
2022-10-23T01:18:25.665Z,1012.16
2022-10-23T01:19:25.645Z,1012.15
2022-10-23T01:20:25.637Z,1012.16
2022-10-23T01:21:25.627Z,1012.17
2022-10-23T01:23:25.613Z,1012.19
2022-10-23T01:24:25.592Z,1012.19
2022-10-23T01:25:25.584Z,1012.19
2022-10-23T01:26:25.585Z,1012.19
2022-10-23T01:27:25.569Z,1012.19
2022-10-23T01:28:25.557Z,1012.19
2022-10-23T01:29:25.537Z,1012.21
2022-10-23T01:30:25.526Z,1012.22
2022-10-23T01:31:25.516Z,1012.18
2022-10-23T01:32:25.503Z,1012.17
2022-10-23T01:33:25.504Z,1012.24
2022-10-23T01:34:25.483Z,1012.21
2022-10-23T01:35:25.473Z,1012.23
2022-10-23T01:36:25.462Z,1012.19
2022-10-23T01:37:25.452Z,1012.19
2022-10-23T01:38:25.481Z,1012.20
2022-10-23T01:39:25.429Z,1012.26
2022-10-23T01:40:25.422Z,1012.26
2022-10-23T01:41:25.408Z,1012.32
2022-10-23T01:42:25.413Z,1012.33
2022-10-23T01:43:25.561Z,1012.28
2022-10-23T01:44:25.375Z,1012.25
2022-10-23T01:45:25.365Z,1012.27
2022-10-23T01:46:25.352Z,1012.27
2022-10-23T01:47:25.347Z,1012.26
2022-10-23T01:48:25.342Z,1012.27
2022-10-23T01:49:25.322Z,1012.29
2022-10-23T01:50:25.314Z,1012.29
2022-10-23T01:51:25.301Z,1012.29
2022-10-23T01:52:25.291Z,1012.27
2022-10-23T01:53:25.290Z,1012.26
2022-10-23T01:54:25.281Z,1012.29
2022-10-23T01:55:25.258Z,1012.25
2022-10-23T01:56:25.244Z,1012.25
2022-10-23T01:57:25.235Z,1012.26
2022-10-23T01:58:25.255Z,1012.28
2022-10-23T01:59:25.217Z,1012.24
2022-10-23T02:00:25.202Z,1012.23
2022-10-23T02:01:25.339Z,1012.25
2022-10-23T02:02:25.276Z,1012.27
2022-10-23T02:03:25.181Z,1012.26
2022-10-23T02:04:25.160Z,1012.24
2022-10-23T02:05:25.149Z,1012.21
2022-10-23T02:06:25.136Z,1012.24
2022-10-23T02:07:25.128Z,1012.23
2022-10-23T02:08:25.124Z,1012.21
2022-10-23T02:09:25.109Z,1012.17
2022-10-23T02:10:25.094Z,1012.14
2022-10-23T02:11:25.094Z,1012.12
2022-10-23T02:12:25.073Z,1012.13
2022-10-23T02:13:25.081Z,1012.16
2022-10-23T02:14:25.071Z,1012.15
2022-10-23T02:15:25.044Z,1012.14
2022-10-23T02:16:25.036Z,1012.13
2022-10-23T02:17:25.031Z,1012.18
2022-10-23T02:18:25.030Z,1012.10
2022-10-23T02:19:25.003Z,1012.17
2022-10-23T02:20:24.996Z,1012.17
2022-10-23T02:21:24.977Z,1012.18
2022-10-23T02:22:24.970Z,1012.12
2022-10-23T02:23:24.966Z,1012.12
2022-10-23T02:24:24.943Z,1012.14
2022-10-23T02:25:24.933Z,1012.14
2022-10-23T02:26:24.921Z,1012.10
2022-10-23T02:27:24.925Z,1012.09
2022-10-23T02:28:24.899Z,1012.11
2022-10-23T02:29:24.891Z,1012.12
2022-10-23T02:30:24.955Z,1012.08
2022-10-23T02:31:24.868Z,1012.09
2022-10-23T02:32:24.869Z,1012.09
2022-10-23T02:33:24.878Z,1012.07
2022-10-23T02:34:24.834Z,1012.08
2022-10-23T02:35:24.832Z,1012.10
2022-10-23T02:36:24.813Z,1012.10
2022-10-23T02:37:24.819Z,1012.09
2022-10-23T02:38:24.791Z,1012.13
2022-10-23T02:39:24.783Z,1012.11
2022-10-23T02:40:24.769Z,1012.15
2022-10-23T02:41:24.763Z,1012.08
2022-10-23T02:42:24.761Z,1012.08
2022-10-23T02:43:24.740Z,1012.08
2022-10-23T02:44:24.727Z,1012.07
2022-10-23T02:45:24.718Z,1012.02
2022-10-23T02:46:24.745Z,1012.07
2022-10-23T02:47:24.696Z,1012.06
2022-10-23T02:48:24.685Z,1012.06
2022-10-23T02:49:24.704Z,1012.05
2022-10-23T02:50:24.663Z,1012.05
2022-10-23T02:51:24.653Z,1012.04
2022-10-23T02:52:24.652Z,1012.03
2022-10-23T02:53:24.631Z,1012.03
2022-10-23T02:54:24.618Z,1012.03
2022-10-23T02:55:24.608Z,1012.13
2022-10-23T02:56:24.596Z,1012.13
2022-10-23T02:57:24.597Z,1012.13
2022-10-23T02:58:24.576Z,1012.15
2022-10-23T02:59:24.566Z,1012.14
2022-10-23T03:00:24.553Z,1012.14
2022-10-23T03:01:24.613Z,1012.15
2022-10-23T03:02:25.806Z,1012.17
2022-10-23T03:03:24.537Z,1012.13
2022-10-23T03:04:24.529Z,1012.09
2022-10-23T03:05:24.501Z,1012.08
2022-10-23T03:06:24.489Z,1012.08
2022-10-23T03:07:24.488Z,1012.06
2022-10-23T03:08:24.467Z,1012.04
2022-10-23T03:09:24.473Z,1012.03
2022-10-23T03:10:24.446Z,1012.05
2022-10-23T03:11:24.438Z,1012.04
2022-10-23T03:12:24.440Z,1012.03
2022-10-23T03:13:24.417Z,1012.03
2022-10-23T03:14:24.403Z,1012.01
2022-10-23T03:15:24.403Z,1011.97
2022-10-23T03:16:24.383Z,1012.03
2022-10-23T03:17:24.385Z,1011.96
2022-10-23T03:18:24.380Z,1012.00
2022-10-23T03:19:24.350Z,1011.99
2022-10-23T03:20:24.338Z,1012.01
2022-10-23T03:21:24.330Z,1012.05
2022-10-23T03:22:24.325Z,1011.99
2022-10-23T03:23:24.308Z,1012.03
2022-10-23T03:24:24.297Z,1012.02
2022-10-23T03:25:24.293Z,1012.05
2022-10-23T03:26:24.273Z,1012.07
2022-10-23T03:27:24.321Z,1012.05
2022-10-23T03:28:24.256Z,1012.06
2022-10-23T03:29:24.242Z,1012.14
2022-10-23T03:30:24.233Z,1012.11
2022-10-23T03:31:24.223Z,1012.14
2022-10-23T03:32:24.221Z,1012.11
2022-10-23T03:33:24.199Z,1012.13
2022-10-23T03:34:24.204Z,1012.14
2022-10-23T03:35:24.179Z,1012.12
2022-10-23T03:36:24.165Z,1012.12
2022-10-23T03:37:24.173Z,1012.07
2022-10-23T03:38:24.145Z,1012.07
2022-10-23T03:39:24.133Z,1012.08
2022-10-23T03:40:24.124Z,1012.09
2022-10-23T03:41:24.112Z,1012.08
2022-10-23T03:42:24.119Z,1012.11
2022-10-23T03:43:24.089Z,1012.12
2022-10-23T03:44:24.094Z,1012.15
2022-10-23T03:45:24.068Z,1012.13
2022-10-23T03:46:24.067Z,1012.11
2022-10-23T03:47:24.048Z,1012.14
2022-10-23T03:48:24.046Z,1012.17
2022-10-23T03:49:24.029Z,1012.11
2022-10-23T03:50:24.032Z,1012.15
2022-10-23T03:51:24.017Z,1012.17
2022-10-23T03:53:23.983Z,1012.18
2022-10-23T03:54:23.999Z,1012.18
2022-10-23T03:55:23.963Z,1012.12
2022-10-23T03:56:23.963Z,1012.21
2022-10-23T03:57:23.940Z,1012.15
2022-10-23T03:58:23.926Z,1012.17
2022-10-23T03:59:23.918Z,1012.16
2022-10-23T04:00:23.907Z,1012.17
2022-10-23T04:01:24.003Z,1012.12
2022-10-23T04:02:23.945Z,1012.16
2022-10-23T04:03:23.875Z,1012.15
2022-10-23T04:04:23.866Z,1012.13
2022-10-23T04:05:23.857Z,1012.18
2022-10-23T04:06:23.857Z,1012.15
2022-10-23T04:07:23.841Z,1012.22
2022-10-23T04:08:23.817Z,1012.18
2022-10-23T04:09:23.819Z,1012.21
2022-10-23T04:10:23.796Z,1012.22
2022-10-23T04:11:23.787Z,1012.22
2022-10-23T04:12:23.792Z,1012.17
2022-10-23T04:13:23.769Z,1012.15
2022-10-23T04:14:23.754Z,1012.19
2022-10-23T04:15:23.744Z,1012.19
2022-10-23T04:16:23.736Z,1012.18
2022-10-23T04:17:23.771Z,1012.21
2022-10-23T04:18:23.710Z,1012.17
2022-10-23T04:19:23.704Z,1012.17
2022-10-23T04:20:23.688Z,1012.18
2022-10-23T04:21:23.682Z,1012.13
2022-10-23T04:22:26.080Z,1012.13
2022-10-23T04:23:23.663Z,1012.15
2022-10-23T04:24:23.648Z,1012.12
2022-10-23T04:25:23.635Z,1012.11
2022-10-23T04:26:23.624Z,1012.13
2022-10-23T04:27:23.627Z,1012.12
2022-10-23T04:28:23.602Z,1012.14
2022-10-23T04:29:23.591Z,1012.09
2022-10-23T04:30:23.579Z,1012.09
2022-10-23T04:31:23.581Z,1012.04
2022-10-23T04:32:23.559Z,1012.06
2022-10-23T04:33:23.548Z,1012.02
2022-10-23T04:34:23.538Z,1012.02
2022-10-23T04:35:23.524Z,1012.04
2022-10-23T04:36:23.525Z,1012.03
2022-10-23T04:37:23.503Z,1012.06
2022-10-23T04:38:23.514Z,1012.05
2022-10-23T04:39:23.483Z,1012.08
2022-10-23T04:40:23.482Z,1012.06
2022-10-23T04:41:23.474Z,1012.06
2022-10-23T04:42:23.489Z,1012.07
2022-10-23T04:43:23.442Z,1012.08
2022-10-23T04:44:23.430Z,1012.09
2022-10-23T04:45:23.416Z,1012.12
2022-10-23T04:46:23.425Z,1012.13
2022-10-23T04:47:23.397Z,1012.15
2022-10-23T04:48:25.624Z,1012.18
2022-10-23T04:49:24.373Z,1012.18
2022-10-23T04:50:23.372Z,1012.19
2022-10-23T04:51:23.368Z,1012.15
2022-10-23T04:52:23.346Z,1012.15
2022-10-23T04:53:23.333Z,1012.15
2022-10-23T04:54:23.338Z,1012.14
2022-10-23T04:55:23.309Z,1012.14
2022-10-23T04:56:23.314Z,1012.15
2022-10-23T04:57:23.287Z,1012.19
2022-10-23T04:58:23.277Z,1012.18
2022-10-23T04:59:23.266Z,1012.17
2022-10-23T05:00:23.259Z,1012.18
2022-10-23T05:01:23.451Z,1012.22
2022-10-23T05:02:23.233Z,1012.22
2022-10-23T05:03:23.222Z,1012.22
2022-10-23T05:04:23.214Z,1012.19
2022-10-23T05:05:23.203Z,1012.19
2022-10-23T05:06:23.206Z,1012.22
2022-10-23T05:07:23.231Z,1012.19
2022-10-23T05:08:23.169Z,1012.15
2022-10-23T05:09:23.155Z,1012.16
2022-10-23T05:10:23.163Z,1012.14
2022-10-23T05:11:23.151Z,1012.12
2022-10-23T05:12:23.123Z,1012.11
2022-10-23T05:13:23.112Z,1012.10
2022-10-23T05:14:23.135Z,1012.12
2022-10-23T05:15:23.093Z,1012.08
2022-10-23T05:16:23.094Z,1012.10
2022-10-23T05:17:23.074Z,1012.08
2022-10-23T05:18:23.061Z,1012.09
2022-10-23T05:19:24.342Z,1012.09
2022-10-23T05:20:23.042Z,1012.06
2022-10-23T05:21:23.036Z,1012.09
2022-10-23T05:22:23.015Z,1012.12
2022-10-23T05:23:23.003Z,1012.11
2022-10-23T05:24:22.995Z,1012.13
2022-10-23T05:25:22.979Z,1012.15
2022-10-23T05:26:22.999Z,1012.13
2022-10-23T05:27:22.967Z,1012.10
2022-10-23T05:28:22.950Z,1012.10
2022-10-23T05:29:22.936Z,1012.09
2022-10-23T05:30:22.927Z,1012.08
2022-10-23T05:31:22.928Z,1012.08
2022-10-23T05:32:22.914Z,1012.09
2022-10-23T05:33:22.893Z,1012.05
2022-10-23T05:34:22.885Z,1012.09
2022-10-23T05:35:22.877Z,1012.10
2022-10-23T05:36:22.875Z,1012.15
2022-10-23T05:37:22.849Z,1012.17
2022-10-23T05:38:22.846Z,1012.13
2022-10-23T05:39:22.828Z,1012.15
2022-10-23T05:40:22.819Z,1012.18
2022-10-23T05:41:22.825Z,1012.16
2022-10-23T05:42:22.815Z,1012.18
2022-10-23T05:43:22.784Z,1012.20
2022-10-23T05:44:22.775Z,1012.18
2022-10-23T05:45:22.763Z,1012.18
2022-10-23T05:46:22.762Z,1012.16
2022-10-23T05:47:22.742Z,1012.17
2022-10-23T05:48:33.906Z,1012.19
2022-10-23T05:49:23.718Z,1012.21
2022-10-23T05:50:22.713Z,1012.25
2022-10-23T05:51:22.706Z,1012.25
2022-10-23T05:52:22.687Z,1012.26
2022-10-23T05:53:22.676Z,1012.23
2022-10-23T05:54:22.676Z,1012.26
2022-10-23T05:55:22.654Z,1012.27
2022-10-23T05:56:22.655Z,1012.28
2022-10-23T05:57:22.633Z,1012.32
2022-10-23T05:58:22.643Z,1012.29
2022-10-23T05:59:23.288Z,1012.26
2022-10-23T06:00:22.600Z,1012.26
2022-10-23T06:01:22.685Z,1012.26
2022-10-23T06:02:22.624Z,1012.24
2022-10-23T06:03:22.565Z,1012.28
2022-10-23T06:04:22.556Z,1012.24
2022-10-23T06:05:22.544Z,1012.25
2022-10-23T06:06:22.541Z,1012.23
2022-10-23T06:07:22.524Z,1012.16
2022-10-23T06:08:22.513Z,1012.16
2022-10-23T06:09:22.502Z,1012.13
2022-10-23T06:10:22.492Z,1012.11
2022-10-23T06:11:22.496Z,1012.15
2022-10-23T06:12:22.473Z,1012.17
2022-10-23T06:13:22.460Z,1012.12
2022-10-23T06:14:22.465Z,1012.13
2022-10-23T06:15:22.433Z,1012.12
2022-10-23T06:16:22.434Z,1012.10
2022-10-23T06:17:22.411Z,1012.14
2022-10-23T06:18:22.404Z,1012.16
2022-10-23T06:19:22.390Z,1012.17
2022-10-23T06:20:26.582Z,1012.13
2022-10-23T06:21:23.386Z,1012.09
2022-10-23T06:22:22.360Z,1012.12
2022-10-23T06:23:22.346Z,1012.16
2022-10-23T06:24:22.337Z,1012.11
2022-10-23T06:25:22.325Z,1012.11
2022-10-23T06:26:22.326Z,1012.12
2022-10-23T06:27:22.305Z,1012.14
2022-10-23T06:28:22.293Z,1012.12
2022-10-23T06:29:22.285Z,1012.11
2022-10-23T06:30:22.303Z,1012.15
2022-10-23T06:31:22.280Z,1012.12
2022-10-23T06:32:22.251Z,1012.09
2022-10-23T06:33:22.239Z,1012.08
2022-10-23T06:34:22.234Z,1012.12
2022-10-23T06:35:22.244Z,1012.07
2022-10-23T06:36:22.225Z,1012.09
2022-10-23T06:37:22.195Z,1012.10
2022-10-23T06:38:30.093Z,1012.14
2022-10-23T06:39:22.171Z,1012.14
2022-10-23T06:40:22.163Z,1012.08
2022-10-23T06:41:22.163Z,1012.12
2022-10-23T06:42:22.141Z,1012.11
2022-10-23T06:43:22.131Z,1012.16
2022-10-23T06:44:22.143Z,1012.15
2022-10-23T06:45:22.110Z,1012.20
2022-10-23T06:46:22.125Z,1012.16
2022-10-23T06:47:22.088Z,1012.20
2022-10-23T06:48:22.076Z,1012.25
2022-10-23T06:49:22.066Z,1012.30
2022-10-23T06:50:22.060Z,1012.23
2022-10-23T06:51:22.060Z,1012.26
2022-10-23T06:52:45.388Z,1012.30
2022-10-23T06:53:23.030Z,1012.32
2022-10-23T06:54:22.013Z,1012.28
2022-10-23T06:55:21.999Z,1012.29
2022-10-23T06:56:22.002Z,1012.35
2022-10-23T06:57:21.977Z,1012.32
2022-10-23T06:58:21.971Z,1012.34
2022-10-23T06:59:21.958Z,1012.38
2022-10-23T07:00:21.946Z,1012.35
2022-10-23T07:01:22.091Z,1012.34
2022-10-23T07:02:21.940Z,1012.39
2022-10-23T07:03:21.913Z,1012.41
2022-10-23T07:04:21.902Z,1012.36
2022-10-23T07:05:21.889Z,1012.33
2022-10-23T07:06:21.891Z,1012.28
2022-10-23T07:07:21.869Z,1012.28
2022-10-23T07:08:21.860Z,1012.26
2022-10-23T07:09:21.845Z,1012.23
2022-10-23T07:10:21.837Z,1012.25
2022-10-23T07:11:21.837Z,1012.25
2022-10-23T07:12:21.814Z,1012.23
2022-10-23T07:13:21.830Z,1012.21
2022-10-23T07:14:21.797Z,1012.27
2022-10-23T07:15:21.782Z,1012.19
2022-10-23T07:16:21.786Z,1012.24
2022-10-23T07:17:21.782Z,1012.27
2022-10-23T07:18:21.857Z,1012.35
2022-10-23T07:19:21.767Z,1012.32
2022-10-23T07:20:21.728Z,1012.35
2022-10-23T07:21:21.727Z,1012.35
2022-10-23T07:22:21.710Z,1012.26
2022-10-23T07:23:21.695Z,1012.29
2022-10-23T07:24:21.686Z,1012.27
2022-10-23T07:25:21.690Z,1012.26
2022-10-23T07:26:21.674Z,1012.24
2022-10-23T07:27:21.652Z,1012.27
2022-10-23T07:28:21.644Z,1012.27
2022-10-23T07:29:21.632Z,1012.29
2022-10-23T07:30:21.649Z,1012.26
2022-10-23T07:31:24.355Z,1012.23
2022-10-23T07:32:22.601Z,1012.25
2022-10-23T07:33:21.590Z,1012.26
2022-10-23T07:34:21.624Z,1012.23
2022-10-23T07:35:21.571Z,1012.27
2022-10-23T07:36:21.665Z,1012.35
2022-10-23T07:37:21.547Z,1012.23
2022-10-23T07:38:21.544Z,1012.27
2022-10-23T07:39:21.527Z,1012.27
2022-10-23T07:40:21.515Z,1012.29
2022-10-23T07:41:21.515Z,1012.23
2022-10-23T07:42:21.495Z,1012.26
2022-10-23T07:43:21.560Z,1012.25
2022-10-23T07:44:23.201Z,1012.18
2022-10-23T07:45:21.463Z,1012.24
2022-10-23T07:46:21.462Z,1012.22
2022-10-23T07:47:21.438Z,1012.21
2022-10-23T07:48:21.432Z,1012.26
2022-10-23T07:49:21.421Z,1012.24
2022-10-23T07:50:21.427Z,1012.21
2022-10-23T07:51:21.402Z,1012.23
2022-10-23T07:52:21.385Z,1012.26
2022-10-23T07:53:21.388Z,1012.23
2022-10-23T07:54:21.364Z,1012.24
2022-10-23T07:55:21.349Z,1012.21
2022-10-23T07:56:21.351Z,1012.23
2022-10-23T07:57:21.333Z,1012.21
2022-10-23T07:58:21.319Z,1012.18
2022-10-23T07:59:21.306Z,1012.20
2022-10-23T08:00:21.330Z,1012.21
2022-10-23T08:01:21.331Z,1012.19
2022-10-23T08:02:21.321Z,1012.13
2022-10-23T08:03:21.262Z,1012.14
2022-10-23T08:04:21.276Z,1012.18
2022-10-23T08:05:21.245Z,1012.19
2022-10-23T08:06:21.262Z,1012.19
2022-10-23T08:07:21.218Z,1012.19
2022-10-23T08:08:21.208Z,1012.13
2022-10-23T08:09:21.196Z,1012.15
2022-10-23T08:10:21.189Z,1012.15
2022-10-23T08:11:21.188Z,1012.15
2022-10-23T08:12:21.170Z,1012.16
2022-10-23T08:13:21.155Z,1012.17
2022-10-23T08:14:21.149Z,1012.19
2022-10-23T08:15:21.132Z,1012.15
2022-10-23T08:16:21.140Z,1012.18
2022-10-23T08:17:23.969Z,1012.20
2022-10-23T08:18:22.104Z,1012.19
2022-10-23T08:19:21.093Z,1012.17
2022-10-23T08:20:21.080Z,1012.18
2022-10-23T08:21:21.084Z,1012.12
2022-10-23T08:22:21.082Z,1012.14
2022-10-23T08:23:21.047Z,1012.12
2022-10-23T08:24:21.035Z,1012.15
2022-10-23T08:25:24.872Z,1012.17
2022-10-23T08:26:21.012Z,1012.13
2022-10-23T08:27:21.012Z,1012.14
2022-10-23T08:28:20.990Z,1012.16
2022-10-23T08:29:20.990Z,1012.13
2022-10-23T08:30:20.969Z,1012.12
2022-10-23T08:31:20.958Z,1012.15
2022-10-23T08:32:20.980Z,1012.20
2022-10-23T08:33:20.934Z,1012.17
2022-10-23T08:34:20.928Z,1012.19
2022-10-23T08:35:20.912Z,1012.23
2022-10-23T08:36:20.913Z,1012.20
2022-10-23T08:37:20.901Z,1012.16
2022-10-23T08:38:20.897Z,1012.25
2022-10-23T08:39:20.886Z,1012.16
2022-10-23T08:40:20.858Z,1012.18
2022-10-23T08:41:20.847Z,1012.21
2022-10-23T08:42:20.911Z,1012.22
2022-10-23T08:43:20.853Z,1012.22
2022-10-23T08:44:20.817Z,1012.22
2022-10-23T08:45:20.843Z,1012.11
2022-10-23T08:46:20.793Z,1012.16
2022-10-23T08:47:20.828Z,1012.14
2022-10-23T08:48:20.768Z,1012.15
2022-10-23T08:49:20.759Z,1012.14
2022-10-23T08:50:20.797Z,1012.11
2022-10-23T08:51:20.738Z,1012.12
2022-10-23T08:52:20.756Z,1012.14
2022-10-23T08:53:20.717Z,1012.09
2022-10-23T08:54:20.752Z,1012.03
2022-10-23T08:55:20.695Z,1012.10
2022-10-23T08:56:20.775Z,1012.13
2022-10-23T08:57:20.686Z,1012.14
2022-10-23T08:58:20.661Z,1012.15
2022-10-23T08:59:20.657Z,1012.10
2022-10-23T09:00:20.736Z,1012.08
2022-10-23T09:01:20.795Z,1012.14
2022-10-23T09:02:20.695Z,1012.12
2022-10-23T09:03:20.615Z,1012.10
2022-10-23T09:04:20.597Z,1012.06
2022-10-23T09:05:20.591Z,1012.08
2022-10-23T09:06:20.576Z,1012.10
2022-10-23T09:07:20.590Z,1012.08
2022-10-23T09:08:20.557Z,1012.13
2022-10-23T09:09:20.546Z,1012.12
2022-10-23T09:10:20.661Z,1012.17
2022-10-23T09:11:20.524Z,1012.19
2022-10-23T09:12:20.522Z,1012.16
2022-10-23T09:13:20.505Z,1012.18
2022-10-23T09:14:20.493Z,1012.16
2022-10-23T09:15:20.483Z,1012.17
2022-10-23T09:16:20.471Z,1012.18
2022-10-23T09:17:20.474Z,1012.17
2022-10-23T09:18:20.452Z,1012.09
2022-10-23T09:19:20.443Z,1012.03
2022-10-23T09:20:20.472Z,1012.08
2022-10-23T09:21:20.420Z,1012.11
2022-10-23T09:22:20.420Z,1012.09
2022-10-23T09:23:20.401Z,1012.05
2022-10-23T09:24:20.391Z,1012.06
2022-10-23T09:25:20.384Z,1012.06
2022-10-23T09:26:20.388Z,1012.01
2022-10-23T09:27:20.368Z,1012.06
2022-10-23T09:28:20.347Z,1012.05
2022-10-23T09:29:20.337Z,1012.04
2022-10-23T09:30:20.330Z,1012.08
2022-10-23T09:31:20.318Z,1012.02
2022-10-23T09:32:20.314Z,1012.03
2022-10-23T09:33:20.330Z,1012.00
2022-10-23T09:34:20.289Z,1012.08
2022-10-23T09:35:20.278Z,1011.99
2022-10-23T09:36:20.268Z,1012.05
2022-10-23T09:37:21.326Z,1012.02
2022-10-23T09:38:20.246Z,1012.03
2022-10-23T09:39:20.269Z,1012.02
2022-10-23T09:40:20.224Z,1012.07
2022-10-23T09:41:20.216Z,1012.07
2022-10-23T09:42:20.231Z,1012.06
2022-10-23T09:43:20.209Z,1012.06
2022-10-23T09:44:20.232Z,1012.11
2022-10-23T09:45:20.176Z,1012.16
2022-10-23T09:46:20.165Z,1012.15
2022-10-23T09:47:20.179Z,1012.12
2022-10-23T09:48:20.143Z,1012.13
2022-10-23T09:49:20.142Z,1012.15
2022-10-23T09:50:20.129Z,1012.15
2022-10-23T09:51:20.128Z,1012.09
2022-10-23T09:52:20.108Z,1012.05
2022-10-23T09:53:20.096Z,1012.05
2022-10-23T09:54:20.108Z,1012.01
2022-10-23T09:55:20.079Z,1012.03
2022-10-23T09:56:23.619Z,1012.03
2022-10-23T09:57:20.060Z,1012.00
2022-10-23T09:58:20.080Z,1012.01
2022-10-23T09:59:20.038Z,1012.03
2022-10-23T10:00:20.039Z,1012.04
2022-10-23T10:01:20.181Z,1012.00
2022-10-23T10:02:20.080Z,1011.97
2022-10-23T10:03:20.040Z,1011.97
2022-10-23T10:04:20.009Z,1011.95
2022-10-23T10:05:19.981Z,1011.97
2022-10-23T10:06:19.990Z,1011.99
2022-10-23T10:07:19.960Z,1011.95
2022-10-23T10:08:19.956Z,1011.88
2022-10-23T10:09:19.943Z,1011.94
2022-10-23T10:10:19.931Z,1011.91
2022-10-23T10:11:19.943Z,1011.94
2022-10-23T10:12:19.913Z,1011.94
2022-10-23T10:13:19.904Z,1011.98
2022-10-23T10:14:19.961Z,1011.99
2022-10-23T10:15:19.896Z,1011.95
2022-10-23T10:16:19.898Z,1011.94
2022-10-23T10:17:19.881Z,1011.92
2022-10-23T10:18:19.872Z,1011.97
2022-10-23T10:19:19.891Z,1011.94
2022-10-23T10:20:19.835Z,1011.86
2022-10-23T10:21:19.845Z,1011.69
2022-10-23T10:22:19.812Z,1011.74
2022-10-23T10:23:19.804Z,1011.72
2022-10-23T10:24:19.797Z,1011.70
2022-10-23T10:25:19.810Z,1011.70
2022-10-23T10:26:19.847Z,1011.72
2022-10-23T10:27:19.764Z,1011.68
2022-10-23T10:28:19.767Z,1011.69
2022-10-23T10:29:19.756Z,1011.65
2022-10-23T10:30:19.765Z,1011.68
2022-10-23T10:31:19.742Z,1011.67
2022-10-23T10:32:19.716Z,1011.66
2022-10-23T10:33:19.702Z,1011.67
2022-10-23T10:34:19.690Z,1011.72
2022-10-23T10:35:19.679Z,1011.71
2022-10-23T10:36:19.707Z,1011.67
2022-10-23T10:37:19.660Z,1011.67
2022-10-23T10:38:19.653Z,1011.72
2022-10-23T10:39:19.649Z,1011.73
2022-10-23T10:40:19.624Z,1011.66
2022-10-23T10:41:19.632Z,1011.65
2022-10-23T10:42:19.603Z,1011.64
2022-10-23T10:43:19.594Z,1011.62
2022-10-23T10:44:19.594Z,1011.66
2022-10-23T10:45:19.571Z,1011.68
2022-10-23T10:46:19.591Z,1011.68
2022-10-23T10:47:21.204Z,1011.68
2022-10-23T10:48:19.538Z,1011.66
2022-10-23T10:49:19.528Z,1011.64
2022-10-23T10:50:19.516Z,1011.62
2022-10-23T10:51:19.516Z,1011.58
2022-10-23T10:52:19.517Z,1011.56
2022-10-23T10:53:19.484Z,1011.52
2022-10-23T10:54:19.480Z,1011.60
2022-10-23T10:55:19.466Z,1011.58
2022-10-23T10:56:19.467Z,1011.54
2022-10-23T10:57:19.447Z,1011.52
2022-10-23T10:58:19.428Z,1011.52
2022-10-23T10:59:19.421Z,1011.54
2022-10-23T11:00:19.421Z,1011.53
2022-10-23T11:01:19.610Z,1011.47
2022-10-23T11:02:19.506Z,1011.46
2022-10-23T11:03:19.436Z,1011.39
2022-10-23T11:04:19.419Z,1011.33
2022-10-23T11:05:19.365Z,1011.36
2022-10-23T11:06:19.368Z,1011.33
2022-10-23T11:07:19.335Z,1011.30
2022-10-23T11:08:19.322Z,1011.29
2022-10-23T11:09:20.910Z,1011.25
2022-10-23T11:10:19.316Z,1011.26
2022-10-23T11:11:19.316Z,1011.25
2022-10-23T11:12:19.301Z,1011.26
2022-10-23T11:13:19.274Z,1011.24
2022-10-23T11:14:19.264Z,1011.22
2022-10-23T11:15:19.296Z,1011.23
2022-10-23T11:16:19.282Z,1011.15
2022-10-23T11:17:19.234Z,1011.11
2022-10-23T11:18:19.237Z,1011.07
2022-10-23T11:19:19.221Z,1011.05
2022-10-23T11:20:19.210Z,1011.06
2022-10-23T11:21:19.199Z,1011.04
2022-10-23T11:22:19.182Z,1011.05
2022-10-23T11:23:19.170Z,1011.06
2022-10-23T11:24:19.168Z,1011.07
2022-10-23T11:25:19.212Z,1011.01
2022-10-23T11:26:19.911Z,1011.04
2022-10-23T11:27:19.144Z,1011.03
2022-10-23T11:28:19.119Z,1010.99
2022-10-23T11:29:19.177Z,1011.00
2022-10-23T11:30:19.134Z,1010.99
2022-10-23T11:31:19.085Z,1010.99
2022-10-23T11:32:19.088Z,1010.96
2022-10-23T11:33:19.102Z,1010.88
2022-10-23T11:34:19.072Z,1010.84
2022-10-23T11:35:19.058Z,1010.84
2022-10-23T11:36:19.032Z,1010.85
2022-10-23T11:37:19.023Z,1010.83
2022-10-23T11:38:19.012Z,1010.82
2022-10-23T11:39:19.006Z,1010.79
2022-10-23T11:40:19.004Z,1010.80
2022-10-23T11:41:21.161Z,1010.75
2022-10-23T11:42:18.977Z,1010.80
2022-10-23T11:43:18.961Z,1010.81
2022-10-23T11:44:18.953Z,1010.78
2022-10-23T11:45:18.963Z,1010.77
2022-10-23T11:46:18.931Z,1010.75
2022-10-23T11:47:18.917Z,1010.67
2022-10-23T11:48:18.904Z,1010.77
2022-10-23T11:49:18.903Z,1010.71
2022-10-23T11:50:18.922Z,1010.77
2022-10-23T11:51:18.879Z,1010.70
2022-10-23T11:52:18.867Z,1010.66
2022-10-23T11:53:19.365Z,1010.64
2022-10-23T11:54:18.842Z,1010.62
2022-10-23T11:55:18.846Z,1010.54
2022-10-23T11:56:18.820Z,1010.52
2022-10-23T11:57:18.842Z,1010.49
2022-10-23T11:58:18.799Z,1010.48
2022-10-23T11:59:18.793Z,1010.45
2022-10-23T12:00:18.792Z,1010.46
2022-10-23T12:01:18.819Z,1010.44
2022-10-23T12:02:18.845Z,1010.50
2022-10-23T12:03:18.777Z,1010.50
2022-10-23T12:04:18.738Z,1010.48
2022-10-23T12:05:18.740Z,1010.48
2022-10-23T12:06:18.732Z,1010.47
2022-10-23T12:07:18.709Z,1010.49